sensor_id;sensor_type;location;lat;lon;timestamp;pressure;altitude;pressure_sealevel;temperature;humidity
59493;BME280;45497;43.996;22.876;2022-07-01T00:01:32;100806.50;;;28.22;39.34
59493;BME280;45497;43.996;22.876;2022-07-01T00:04:01;100813.03;;;28.21;39.55
59493;BME280;45497;43.996;22.876;2022-07-01T00:06:28;100817.94;;;28.19;39.31
59493;BME280;45497;43.996;22.876;2022-07-01T00:08:55;100815.28;;;28.14;39.59
59493;BME280;45497;43.996;22.876;2022-07-01T00:11:22;100814.81;;;28.01;39.49
59493;BME280;45497;43.996;22.876;2022-07-01T00:13:49;100819.25;;;27.87;40.18
59493;BME280;45497;43.996;22.876;2022-07-01T00:16:16;100826.41;;;27.78;40.00
59493;BME280;45497;43.996;22.876;2022-07-01T00:18:43;100836.56;;;27.67;40.31
59493;BME280;45497;43.996;22.876;2022-07-01T00:21:11;100832.50;;;27.64;40.26
59493;BME280;45497;43.996;22.876;2022-07-01T00:23:39;100833.59;;;27.63;40.72
59493;BME280;45497;43.996;22.876;2022-07-01T00:26:06;100823.81;;;27.62;40.71
59493;BME280;45497;43.996;22.876;2022-07-01T00:28:33;100838.50;;;27.61;40.89
59493;BME280;45497;43.996;22.876;2022-07-01T00:31:00;100834.16;;;27.60;40.98
59493;BME280;45497;43.996;22.876;2022-07-01T00:34:41;100839.34;;;27.57;40.52
59493;BME280;45497;43.996;22.876;2022-07-01T00:37:08;100841.53;;;27.55;40.44
59493;BME280;45497;43.996;22.876;2022-07-01T00:39:35;100841.28;;;27.51;40.90
59493;BME280;45497;43.996;22.876;2022-07-01T00:42:03;100837.75;;;27.51;40.80
59493;BME280;45497;43.996;22.876;2022-07-01T00:44:31;100839.66;;;27.50;41.14
59493;BME280;45497;43.996;22.876;2022-07-01T00:47:02;100842.66;;;27.49;40.50
59493;BME280;45497;43.996;22.876;2022-07-01T00:49:29;100837.50;;;27.47;40.79
59493;BME280;45497;43.996;22.876;2022-07-01T00:51:58;100847.84;;;27.45;40.89
59493;BME280;45497;43.996;22.876;2022-07-01T00:54:26;100844.03;;;27.46;40.60
59493;BME280;45497;43.996;22.876;2022-07-01T00:56:53;100844.06;;;27.41;40.84
59493;BME280;45497;43.996;22.876;2022-07-01T00:59:20;100839.97;;;27.38;40.62
59493;BME280;45497;43.996;22.876;2022-07-01T01:01:47;100848.69;;;27.40;41.08
59493;BME280;45497;43.996;22.876;2022-07-01T01:04:14;100838.63;;;27.41;40.97
59493;BME280;45497;43.996;22.876;2022-07-01T01:06:41;100832.91;;;27.42;41.00
59493;BME280;45497;43.996;22.876;2022-07-01T01:09:09;100828.25;;;27.43;41.23
59493;BME280;45497;43.996;22.876;2022-07-01T01:11:37;100820.91;;;27.43;40.23
59493;BME280;45497;43.996;22.876;2022-07-01T01:14:04;100821.44;;;27.40;40.34
59493;BME280;45497;43.996;22.876;2022-07-01T01:16:31;100836.72;;;27.41;40.65
59493;BME280;45497;43.996;22.876;2022-07-01T01:18:59;100831.00;;;27.38;40.31
59493;BME280;45497;43.996;22.876;2022-07-01T01:21:29;100845.69;;;27.37;40.63
59493;BME280;45497;43.996;22.876;2022-07-01T01:23:57;100844.91;;;27.36;40.53
59493;BME280;45497;43.996;22.876;2022-07-01T01:26:55;100844.34;;;27.34;40.68
59493;BME280;45497;43.996;22.876;2022-07-01T01:29:22;100848.47;;;27.32;40.29
59493;BME280;45497;43.996;22.876;2022-07-01T01:31:49;100852.28;;;27.31;40.79
59493;BME280;45497;43.996;22.876;2022-07-01T01:34:16;100846.28;;;27.29;40.75
59493;BME280;45497;43.996;22.876;2022-07-01T01:36:43;100850.66;;;27.24;40.61
59493;BME280;45497;43.996;22.876;2022-07-01T01:39:36;100855.84;;;27.21;40.62
59493;BME280;45497;43.996;22.876;2022-07-01T01:42:04;100862.63;;;27.18;41.08
59493;BME280;45497;43.996;22.876;2022-07-01T01:44:32;100872.44;;;27.14;41.24
59493;BME280;45497;43.996;22.876;2022-07-01T01:46:59;100876.25;;;27.08;41.38
59493;BME280;45497;43.996;22.876;2022-07-01T01:49:25;100876.31;;;27.03;41.09
59493;BME280;45497;43.996;22.876;2022-07-01T01:51:53;100875.19;;;26.99;41.68
59493;BME280;45497;43.996;22.876;2022-07-01T01:54:20;100881.50;;;26.94;41.36
59493;BME280;45497;43.996;22.876;2022-07-01T01:56:48;100885.03;;;26.89;41.38
59493;BME280;45497;43.996;22.876;2022-07-01T01:59:15;100883.94;;;26.85;41.33
59493;BME280;45497;43.996;22.876;2022-07-01T02:01:42;100889.94;;;26.82;41.81
59493;BME280;45497;43.996;22.876;2022-07-01T02:04:20;100890.19;;;26.81;41.67
59493;BME280;45497;43.996;22.876;2022-07-01T02:06:48;100887.22;;;26.77;41.72
59493;BME280;45497;43.996;22.876;2022-07-01T02:09:16;100882.03;;;26.76;41.74
59493;BME280;45497;43.996;22.876;2022-07-01T02:11:43;100889.66;;;26.74;41.71
59493;BME280;45497;43.996;22.876;2022-07-01T02:14:09;100885.06;;;26.69;42.11
59493;BME280;45497;43.996;22.876;2022-07-01T02:16:37;100879.09;;;26.67;42.25
59493;BME280;45497;43.996;22.876;2022-07-01T02:19:03;100882.88;;;26.66;42.10
59493;BME280;45497;43.996;22.876;2022-07-01T02:21:32;100890.50;;;26.64;41.60
59493;BME280;45497;43.996;22.876;2022-07-01T02:23:59;100898.41;;;26.65;41.79
59493;BME280;45497;43.996;22.876;2022-07-01T02:26:26;100894.03;;;26.64;41.97
59493;BME280;45497;43.996;22.876;2022-07-01T02:28:53;100898.38;;;26.55;41.79
59493;BME280;45497;43.996;22.876;2022-07-01T02:31:20;100909.78;;;26.57;41.97
59493;BME280;45497;43.996;22.876;2022-07-01T02:33:47;100910.59;;;26.58;41.96
59493;BME280;45497;43.996;22.876;2022-07-01T02:36:14;100914.13;;;26.53;42.25
59493;BME280;45497;43.996;22.876;2022-07-01T02:38:42;100914.66;;;26.50;42.21
59493;BME280;45497;43.996;22.876;2022-07-01T02:41:09;100914.41;;;26.46;42.17
59493;BME280;45497;43.996;22.876;2022-07-01T02:43:36;100915.22;;;26.42;42.18
59493;BME280;45497;43.996;22.876;2022-07-01T02:46:03;100918.75;;;26.37;42.38
59493;BME280;45497;43.996;22.876;2022-07-01T02:48:30;100913.84;;;26.39;42.25
59493;BME280;45497;43.996;22.876;2022-07-01T02:50:57;100923.66;;;26.40;42.36
59493;BME280;45497;43.996;22.876;2022-07-01T02:53:24;100920.66;;;26.37;42.04
59493;BME280;45497;43.996;22.876;2022-07-01T02:55:52;100931.25;;;26.33;42.70
59493;BME280;45497;43.996;22.876;2022-07-01T02:58:20;100938.03;;;26.30;42.33
59493;BME280;45497;43.996;22.876;2022-07-01T03:00:47;100937.75;;;26.32;42.28
59493;BME280;45497;43.996;22.876;2022-07-01T03:03:17;100938.31;;;26.34;42.40
59493;BME280;45497;43.996;22.876;2022-07-01T03:05:44;100936.44;;;26.35;42.34
59493;BME280;45497;43.996;22.876;2022-07-01T03:08:12;100947.28;;;26.35;42.48
59493;BME280;45497;43.996;22.876;2022-07-01T03:10:39;100953.25;;;26.31;42.54
59493;BME280;45497;43.996;22.876;2022-07-01T03:13:07;100959.50;;;26.32;42.28
59493;BME280;45497;43.996;22.876;2022-07-01T03:15:34;100962.75;;;26.34;42.40
59493;BME280;45497;43.996;22.876;2022-07-01T03:18:01;100960.88;;;26.40;42.13
59493;BME280;45497;43.996;22.876;2022-07-01T03:20:28;100966.31;;;26.45;42.00
59493;BME280;45497;43.996;22.876;2022-07-01T03:22:55;100964.72;;;26.49;41.82
59493;BME280;45497;43.996;22.876;2022-07-01T03:25:22;100955.72;;;26.54;42.21
59493;BME280;45497;43.996;22.876;2022-07-01T03:27:49;100966.59;;;26.59;42.15
59493;BME280;45497;43.996;22.876;2022-07-01T03:30:19;100967.44;;;26.64;41.61
59493;BME280;45497;43.996;22.876;2022-07-01T03:32:46;100966.91;;;26.67;41.68
59493;BME280;45497;43.996;22.876;2022-07-01T03:35:13;100980.25;;;26.74;41.55
59493;BME280;45497;43.996;22.876;2022-07-01T03:37:57;100985.66;;;26.79;41.47
59493;BME280;45497;43.996;22.876;2022-07-01T03:40:24;100986.50;;;26.80;41.89
59493;BME280;45497;43.996;22.876;2022-07-01T03:42:51;100979.41;;;26.79;41.66
59493;BME280;45497;43.996;22.876;2022-07-01T03:45:19;100986.22;;;26.81;41.81
59493;BME280;45497;43.996;22.876;2022-07-01T03:47:47;100976.16;;;26.92;41.60
59493;BME280;45497;43.996;22.876;2022-07-01T03:50:14;100979.69;;;27.03;41.65
59493;BME280;45497;43.996;22.876;2022-07-01T03:52:41;100979.91;;;27.12;41.39
59493;BME280;45497;43.996;22.876;2022-07-01T03:55:09;100972.03;;;27.20;40.95
59493;BME280;45497;43.996;22.876;2022-07-01T03:57:35;100977.47;;;27.31;41.18
59493;BME280;45497;43.996;22.876;2022-07-01T04:00:02;100981.28;;;27.35;40.81
59493;BME280;45497;43.996;22.876;2022-07-01T04:02:31;100983.44;;;27.43;41.01
59493;BME280;45497;43.996;22.876;2022-07-01T04:04:58;100989.94;;;27.52;40.68
59493;BME280;45497;43.996;22.876;2022-07-01T04:07:26;100989.91;;;27.62;40.73
59493;BME280;45497;43.996;22.876;2022-07-01T04:09:53;100985.53;;;27.72;40.77
59493;BME280;45497;43.996;22.876;2022-07-01T04:12:20;100982.72;;;27.82;40.48
59493;BME280;45497;43.996;22.876;2022-07-01T04:14:47;100983.53;;;27.93;40.06
59493;BME280;45497;43.996;22.876;2022-07-01T04:17:14;100985.41;;;28.02;39.99
59493;BME280;45497;43.996;22.876;2022-07-01T04:19:43;100994.81;;;28.26;39.56
59493;BME280;45497;43.996;22.876;2022-07-01T04:22:10;100992.81;;;28.41;39.06
59493;BME280;45497;43.996;22.876;2022-07-01T04:24:54;100997.66;;;28.50;39.39
59493;BME280;45497;43.996;22.876;2022-07-01T04:27:21;100983.97;;;28.60;38.96
59493;BME280;45497;43.996;22.876;2022-07-01T04:29:48;100994.81;;;28.70;38.98
59493;BME280;45497;43.996;22.876;2022-07-01T04:32:15;100997.16;;;28.82;38.92
59493;BME280;45497;43.996;22.876;2022-07-01T04:34:43;100994.34;;;28.92;38.57
59493;BME280;45497;43.996;22.876;2022-07-01T04:37:10;100999.41;;;29.04;38.56
59493;BME280;45497;43.996;22.876;2022-07-01T04:39:37;101006.69;;;29.14;38.68
59493;BME280;45497;43.996;22.876;2022-07-01T04:42:05;101006.56;;;29.29;38.37
59493;BME280;45497;43.996;22.876;2022-07-01T04:44:33;101004.31;;;29.36;38.28
59493;BME280;45497;43.996;22.876;2022-07-01T04:47:01;101000.94;;;29.45;38.39
59493;BME280;45497;43.996;22.876;2022-07-01T04:49:29;101004.63;;;29.59;38.19
59493;BME280;45497;43.996;22.876;2022-07-01T04:51:58;101009.13;;;29.69;37.98
59493;BME280;45497;43.996;22.876;2022-07-01T04:54:25;101008.25;;;29.79;37.98
59493;BME280;45497;43.996;22.876;2022-07-01T04:56:52;101016.59;;;29.87;37.82
59493;BME280;45497;43.996;22.876;2022-07-01T04:59:19;101011.28;;;29.96;37.72
59493;BME280;45497;43.996;22.876;2022-07-01T05:01:46;101013.59;;;30.08;37.73
59493;BME280;45497;43.996;22.876;2022-07-01T05:04:16;101005.25;;;30.18;37.50
59493;BME280;45497;43.996;22.876;2022-07-01T05:06:42;101005.59;;;30.30;37.07
59493;BME280;45497;43.996;22.876;2022-07-01T05:09:11;101007.94;;;30.42;36.98
59493;BME280;45497;43.996;22.876;2022-07-01T05:11:38;101005.56;;;30.55;36.76
59493;BME280;45497;43.996;22.876;2022-07-01T05:14:05;101011.38;;;30.67;36.62
59493;BME280;45497;43.996;22.876;2022-07-01T05:16:33;101012.63;;;30.75;36.86
59493;BME280;45497;43.996;22.876;2022-07-01T05:19:00;101008.38;;;30.82;36.42
59493;BME280;45497;43.996;22.876;2022-07-01T05:21:44;101008.00;;;30.89;36.21
59493;BME280;45497;43.996;22.876;2022-07-01T05:24:28;101002.91;;;31.01;36.22
59493;BME280;45497;43.996;22.876;2022-07-01T05:26:56;101001.38;;;31.09;36.35
59493;BME280;45497;43.996;22.876;2022-07-01T05:29:24;101001.00;;;31.16;35.69
59493;BME280;45497;43.996;22.876;2022-07-01T05:31:51;101007.31;;;31.30;35.82
59493;BME280;45497;43.996;22.876;2022-07-01T05:34:18;101003.63;;;31.35;35.12
59493;BME280;45497;43.996;22.876;2022-07-01T05:36:45;101007.81;;;31.46;35.05
59493;BME280;45497;43.996;22.876;2022-07-01T05:39:12;101013.94;;;31.57;34.90
59493;BME280;45497;43.996;22.876;2022-07-01T05:41:40;101012.00;;;31.71;35.02
59493;BME280;45497;43.996;22.876;2022-07-01T05:44:07;101018.28;;;31.86;34.61
59493;BME280;45497;43.996;22.876;2022-07-01T05:46:34;101005.19;;;31.96;34.35
59493;BME280;45497;43.996;22.876;2022-07-01T05:49:02;101008.91;;;32.00;34.44
59493;BME280;45497;43.996;22.876;2022-07-01T05:51:28;101005.34;;;32.14;34.56
59493;BME280;45497;43.996;22.876;2022-07-01T05:53:55;101002.19;;;32.20;33.61
59493;BME280;45497;43.996;22.876;2022-07-01T05:56:23;101002.66;;;32.36;33.36
59493;BME280;45497;43.996;22.876;2022-07-01T05:58:52;100996.75;;;32.43;33.00
59493;BME280;45497;43.996;22.876;2022-07-01T06:01:19;101001.97;;;32.53;33.55
59493;BME280;45497;43.996;22.876;2022-07-01T06:03:46;101000.13;;;32.63;33.06
59493;BME280;45497;43.996;22.876;2022-07-01T06:06:13;101008.69;;;32.61;33.58
59493;BME280;45497;43.996;22.876;2022-07-01T06:08:40;101012.31;;;32.70;33.40
59493;BME280;45497;43.996;22.876;2022-07-01T06:11:07;101013.47;;;32.78;33.42
59493;BME280;45497;43.996;22.876;2022-07-01T06:13:35;101011.94;;;32.63;33.42
59493;BME280;45497;43.996;22.876;2022-07-01T06:16:03;101011.50;;;33.01;32.94
59493;BME280;45497;43.996;22.876;2022-07-01T06:18:30;101009.56;;;33.33;32.00
59493;BME280;45497;43.996;22.876;2022-07-01T06:20:57;101007.53;;;33.47;31.83
59493;BME280;45497;43.996;22.876;2022-07-01T06:23:24;101018.78;;;33.68;31.74
59493;BME280;45497;43.996;22.876;2022-07-01T06:25:51;101021.91;;;33.84;31.46
59493;BME280;45497;43.996;22.876;2022-07-01T06:28:18;101015.94;;;33.91;31.35
59493;BME280;45497;43.996;22.876;2022-07-01T06:30:45;101020.31;;;34.09;31.24
59493;BME280;45497;43.996;22.876;2022-07-01T06:33:14;101022.97;;;34.23;30.95
59493;BME280;45497;43.996;22.876;2022-07-01T06:35:40;101029.13;;;34.29;30.84
59493;BME280;45497;43.996;22.876;2022-07-01T06:38:07;101025.56;;;34.72;30.51
59493;BME280;45497;43.996;22.876;2022-07-01T06:42:17;101024.19;;;35.04;29.67
59493;BME280;45497;43.996;22.876;2022-07-01T06:44:44;101020.91;;;35.11;29.74
59493;BME280;45497;43.996;22.876;2022-07-01T06:47:11;101018.28;;;35.62;29.33
59493;BME280;45497;43.996;22.876;2022-07-01T06:49:39;101014.63;;;36.09;29.17
59493;BME280;45497;43.996;22.876;2022-07-01T06:52:06;101015.59;;;36.46;27.97
59493;BME280;45497;43.996;22.876;2022-07-01T06:54:33;101015.13;;;36.44;27.85
59493;BME280;45497;43.996;22.876;2022-07-01T06:57:01;101008.66;;;36.61;27.46
59493;BME280;45497;43.996;22.876;2022-07-01T06:59:30;101005.56;;;36.63;27.96
59493;BME280;45497;43.996;22.876;2022-07-01T07:01:57;101007.97;;;36.31;28.11
59493;BME280;45497;43.996;22.876;2022-07-01T07:04:24;101009.69;;;36.14;28.15
59493;BME280;45497;43.996;22.876;2022-07-01T07:06:51;101007.25;;;35.62;28.92
59493;BME280;45497;43.996;22.876;2022-07-01T07:09:18;101010.25;;;35.48;29.37
59493;BME280;45497;43.996;22.876;2022-07-01T07:11:45;101003.94;;;35.48;29.92
59493;BME280;45497;43.996;22.876;2022-07-01T07:14:12;101000.78;;;35.58;29.29
59493;BME280;45497;43.996;22.876;2022-07-01T07:16:40;101000.50;;;35.51;29.38
59493;BME280;45497;43.996;22.876;2022-07-01T07:19:07;101001.19;;;35.48;29.64
59493;BME280;45497;43.996;22.876;2022-07-01T07:21:35;101006.47;;;35.23;29.98
59493;BME280;45497;43.996;22.876;2022-07-01T07:24:02;101006.59;;;34.71;30.44
59493;BME280;45497;43.996;22.876;2022-07-01T07:26:30;101011.44;;;34.65;31.00
59493;BME280;45497;43.996;22.876;2022-07-01T07:28:57;101016.31;;;34.51;31.07
59493;BME280;45497;43.996;22.876;2022-07-01T07:31:23;101010.28;;;34.57;31.30
59493;BME280;45497;43.996;22.876;2022-07-01T07:33:52;101009.50;;;34.74;31.23
59493;BME280;45497;43.996;22.876;2022-07-01T07:36:19;101013.88;;;34.66;31.55
59493;BME280;45497;43.996;22.876;2022-07-01T07:38:46;100999.81;;;34.42;31.62
59493;BME280;45497;43.996;22.876;2022-07-01T07:41:13;101002.25;;;34.35;31.97
59493;BME280;45497;43.996;22.876;2022-07-01T07:43:40;101001.25;;;34.48;31.49
59493;BME280;45497;43.996;22.876;2022-07-01T07:46:06;101002.72;;;34.19;32.17
59493;BME280;45497;43.996;22.876;2022-07-01T07:48:33;101003.19;;;34.04;32.43
59493;BME280;45497;43.996;22.876;2022-07-01T07:51:02;101002.81;;;33.88;32.86
59493;BME280;45497;43.996;22.876;2022-07-01T07:53:29;101008.94;;;33.36;33.50
59493;BME280;45497;43.996;22.876;2022-07-01T07:55:56;100995.13;;;33.19;33.86
59493;BME280;45497;43.996;22.876;2022-07-01T07:58:23;100998.53;;;32.93;34.16
59493;BME280;45497;43.996;22.876;2022-07-01T08:00:50;100999.69;;;32.92;34.83
59493;BME280;45497;43.996;22.876;2022-07-01T08:03:17;100996.81;;;33.06;34.51
59493;BME280;45497;43.996;22.876;2022-07-01T08:05:44;100989.16;;;33.17;34.57
59493;BME280;45497;43.996;22.876;2022-07-01T08:08:12;100990.03;;;33.03;34.35
59493;BME280;45497;43.996;22.876;2022-07-01T08:10:39;100993.53;;;32.95;34.62
59493;BME280;45497;43.996;22.876;2022-07-01T08:13:06;100988.69;;;32.92;34.96
59493;BME280;45497;43.996;22.876;2022-07-01T08:15:33;100990.03;;;33.03;34.67
59493;BME280;45497;43.996;22.876;2022-07-01T08:18:00;100992.47;;;33.05;35.38
59493;BME280;45497;43.996;22.876;2022-07-01T08:20:27;100989.22;;;33.03;35.05
59493;BME280;45497;43.996;22.876;2022-07-01T08:22:54;100991.16;;;33.02;34.43
59493;BME280;45497;43.996;22.876;2022-07-01T08:25:22;100997.88;;;32.87;34.77
59493;BME280;45497;43.996;22.876;2022-07-01T08:27:49;100999.97;;;32.45;35.12
59493;BME280;45497;43.996;22.876;2022-07-01T08:30:16;100997.75;;;32.70;34.96
59493;BME280;45497;43.996;22.876;2022-07-01T08:32:43;100998.28;;;32.81;34.80
59493;BME280;45497;43.996;22.876;2022-07-01T08:35:10;100985.44;;;32.90;34.92
59493;BME280;45497;43.996;22.876;2022-07-01T08:37:37;100990.00;;;32.94;34.64
59493;BME280;45497;43.996;22.876;2022-07-01T08:40:05;100980.81;;;32.99;34.87
59493;BME280;45497;43.996;22.876;2022-07-01T08:42:34;100979.69;;;33.00;34.82
59493;BME280;45497;43.996;22.876;2022-07-01T08:45:02;100981.81;;;33.03;34.84
59493;BME280;45497;43.996;22.876;2022-07-01T08:47:29;100979.31;;;32.93;34.90
59493;BME280;45497;43.996;22.876;2022-07-01T08:49:59;100977.09;;;33.04;34.76
59493;BME280;45497;43.996;22.876;2022-07-01T08:52:27;100979.94;;;32.90;34.31
59493;BME280;45497;43.996;22.876;2022-07-01T08:54:54;100981.88;;;32.89;34.37
59493;BME280;45497;43.996;22.876;2022-07-01T08:57:22;100976.78;;;33.05;34.36
59493;BME280;45497;43.996;22.876;2022-07-01T09:00:03;100971.31;;;33.05;34.61
59493;BME280;45497;43.996;22.876;2022-07-01T09:02:52;100972.78;;;33.11;33.38
59493;BME280;45497;43.996;22.876;2022-07-01T09:05:20;100973.59;;;33.12;33.41
59493;BME280;45497;43.996;22.876;2022-07-01T09:07:48;100976.25;;;32.94;33.49
59493;BME280;45497;43.996;22.876;2022-07-01T09:10:17;100972.97;;;32.84;33.96
59493;BME280;45497;43.996;22.876;2022-07-01T09:12:45;100961.84;;;32.89;34.13
59493;BME280;45497;43.996;22.876;2022-07-01T09:15:22;100962.53;;;32.94;34.15
59493;BME280;45497;43.996;22.876;2022-07-01T09:17:51;100969.19;;;33.02;33.52
59493;BME280;45497;43.996;22.876;2022-07-01T09:20:26;100965.94;;;33.00;33.75
59493;BME280;45497;43.996;22.876;2022-07-01T09:23:04;100972.78;;;33.11;33.50
59493;BME280;45497;43.996;22.876;2022-07-01T09:25:34;100975.28;;;33.22;32.90
59493;BME280;45497;43.996;22.876;2022-07-01T09:28:06;100971.56;;;33.18;33.14
59493;BME280;45497;43.996;22.876;2022-07-01T09:30:36;100981.81;;;33.43;33.06
59493;BME280;45497;43.996;22.876;2022-07-01T09:33:08;100976.31;;;33.43;33.16
59493;BME280;45497;43.996;22.876;2022-07-01T09:35:35;100976.91;;;33.71;33.31
59493;BME280;45497;43.996;22.876;2022-07-01T09:38:03;100967.22;;;33.74;31.91
59493;BME280;45497;43.996;22.876;2022-07-01T09:40:54;100977.44;;;33.91;31.55
59493;BME280;45497;43.996;22.876;2022-07-01T09:43:23;100966.09;;;33.75;31.99
59493;BME280;45497;43.996;22.876;2022-07-01T09:45:54;100965.78;;;33.77;31.63
59493;BME280;45497;43.996;22.876;2022-07-01T09:48:22;100963.19;;;33.80;31.70
59493;BME280;45497;43.996;22.876;2022-07-01T09:50:50;100959.78;;;33.75;31.30
59493;BME280;45497;43.996;22.876;2022-07-01T09:53:17;100958.84;;;33.97;31.49
59493;BME280;45497;43.996;22.876;2022-07-01T09:55:45;100955.59;;;34.12;31.11
59493;BME280;45497;43.996;22.876;2022-07-01T09:58:13;100953.34;;;34.14;30.84
59493;BME280;45497;43.996;22.876;2022-07-01T10:00:40;100953.03;;;34.07;30.68
59493;BME280;45497;43.996;22.876;2022-07-01T10:03:09;100953.97;;;34.28;30.75
59493;BME280;45497;43.996;22.876;2022-07-01T10:05:40;100947.16;;;34.17;30.41
59493;BME280;45497;43.996;22.876;2022-07-01T10:08:19;100951.59;;;34.18;30.67
59493;BME280;45497;43.996;22.876;2022-07-01T10:10:51;100952.69;;;34.17;30.76
59493;BME280;45497;43.996;22.876;2022-07-01T10:13:25;100943.78;;;34.12;29.61
59493;BME280;45497;43.996;22.876;2022-07-01T10:15:52;100947.38;;;34.21;29.92
59493;BME280;45497;43.996;22.876;2022-07-01T10:18:23;100939.25;;;34.33;30.02
59493;BME280;45497;43.996;22.876;2022-07-01T10:20:51;100938.75;;;34.49;30.14
59493;BME280;45497;43.996;22.876;2022-07-01T10:23:19;100948.00;;;34.35;29.52
59493;BME280;45497;43.996;22.876;2022-07-01T10:25:47;100951.06;;;34.34;29.78
59493;BME280;45497;43.996;22.876;2022-07-01T10:28:23;100942.47;;;34.44;29.95
59493;BME280;45497;43.996;22.876;2022-07-01T10:30:52;100936.16;;;34.52;29.44
59493;BME280;45497;43.996;22.876;2022-07-01T10:33:35;100935.53;;;34.38;28.32
59493;BME280;45497;43.996;22.876;2022-07-01T10:36:13;100931.50;;;34.35;29.39
59493;BME280;45497;43.996;22.876;2022-07-01T10:39:09;100925.19;;;34.35;27.87
59493;BME280;45497;43.996;22.876;2022-07-01T10:41:39;100919.19;;;34.41;26.89
59493;BME280;45497;43.996;22.876;2022-07-01T10:44:08;100920.28;;;34.58;29.30
59493;BME280;45497;43.996;22.876;2022-07-01T10:46:40;100915.22;;;34.69;29.34
59493;BME280;45497;43.996;22.876;2022-07-01T10:49:11;100916.69;;;34.75;28.01
59493;BME280;45497;43.996;22.876;2022-07-01T10:51:45;100911.19;;;34.75;27.49
59493;BME280;45497;43.996;22.876;2022-07-01T10:54:13;100904.22;;;34.77;28.19
59493;BME280;45497;43.996;22.876;2022-07-01T10:56:41;100902.72;;;34.89;29.04
59493;BME280;45497;43.996;22.876;2022-07-01T10:59:17;100902.97;;;35.04;28.35
59493;BME280;45497;43.996;22.876;2022-07-01T11:01:45;100906.28;;;35.19;27.92
59493;BME280;45497;43.996;22.876;2022-07-01T11:04:13;100889.38;;;35.29;27.09
59493;BME280;45497;43.996;22.876;2022-07-01T11:06:41;100892.28;;;35.33;26.09
59493;BME280;45497;43.996;22.876;2022-07-01T11:09:11;100898.22;;;35.44;25.29
59493;BME280;45497;43.996;22.876;2022-07-01T11:11:38;100885.59;;;35.42;25.42
59493;BME280;45497;43.996;22.876;2022-07-01T11:14:06;100887.59;;;35.33;25.87
59493;BME280;45497;43.996;22.876;2022-07-01T11:16:33;100883.03;;;35.37;25.21
59493;BME280;45497;43.996;22.876;2022-07-01T11:19:00;100875.56;;;35.38;23.42
59493;BME280;45497;43.996;22.876;2022-07-01T11:21:29;100871.38;;;35.53;23.82
59493;BME280;45497;43.996;22.876;2022-07-01T11:23:56;100866.00;;;35.56;24.70
59493;BME280;45497;43.996;22.876;2022-07-01T11:26:23;100860.25;;;35.49;25.06
59493;BME280;45497;43.996;22.876;2022-07-01T11:28:51;100854.38;;;35.30;24.25
59493;BME280;45497;43.996;22.876;2022-07-01T11:31:30;100859.09;;;35.50;23.05
59493;BME280;45497;43.996;22.876;2022-07-01T11:33:58;100853.91;;;35.49;23.00
59493;BME280;45497;43.996;22.876;2022-07-01T11:36:26;100848.66;;;35.56;23.39
59493;BME280;45497;43.996;22.876;2022-07-01T11:39:11;100852.16;;;35.65;24.23
59493;BME280;45497;43.996;22.876;2022-07-01T11:41:53;100846.72;;;35.77;24.36
59493;BME280;45497;43.996;22.876;2022-07-01T11:44:31;100842.00;;;35.78;24.00
59493;BME280;45497;43.996;22.876;2022-07-01T11:46:59;100845.41;;;35.84;23.46
59493;BME280;45497;43.996;22.876;2022-07-01T11:49:26;100839.00;;;35.71;21.43
59493;BME280;45497;43.996;22.876;2022-07-01T11:51:55;100836.03;;;35.76;20.67
59493;BME280;45497;43.996;22.876;2022-07-01T11:54:24;100824.72;;;35.90;20.36
59493;BME280;45497;43.996;22.876;2022-07-01T11:56:51;100825.66;;;35.94;19.43
59493;BME280;45497;43.996;22.876;2022-07-01T11:59:19;100826.22;;;35.99;18.81
59493;BME280;45497;43.996;22.876;2022-07-01T12:01:53;100822.13;;;36.06;19.91
59493;BME280;45497;43.996;22.876;2022-07-01T12:04:21;100817.75;;;36.05;20.16
59493;BME280;45497;43.996;22.876;2022-07-01T12:06:48;100816.72;;;36.09;19.19
59493;BME280;45497;43.996;22.876;2022-07-01T12:09:16;100815.34;;;36.15;19.14
59493;BME280;45497;43.996;22.876;2022-07-01T12:11:45;100818.13;;;36.15;18.31
59493;BME280;45497;43.996;22.876;2022-07-01T12:14:19;100817.66;;;36.13;19.20
59493;BME280;45497;43.996;22.876;2022-07-01T12:16:50;100810.53;;;36.12;20.10
59493;BME280;45497;43.996;22.876;2022-07-01T12:19:17;100807.22;;;36.19;20.48
59493;BME280;45497;43.996;22.876;2022-07-01T12:21:49;100802.16;;;36.21;22.01
59493;BME280;45497;43.996;22.876;2022-07-01T12:24:17;100799.25;;;36.17;22.17
59493;BME280;45497;43.996;22.876;2022-07-01T12:27:02;100796.09;;;36.28;22.83
59493;BME280;45497;43.996;22.876;2022-07-01T12:29:31;100790.81;;;36.35;22.19
59493;BME280;45497;43.996;22.876;2022-07-01T12:32:16;100789.34;;;36.38;22.13
59493;BME280;45497;43.996;22.876;2022-07-01T12:34:45;100795.88;;;36.45;21.53
59493;BME280;45497;43.996;22.876;2022-07-01T12:37:13;100790.16;;;36.50;20.92
59493;BME280;45497;43.996;22.876;2022-07-01T12:39:48;100793.13;;;36.58;21.17
59493;BME280;45497;43.996;22.876;2022-07-01T12:42:25;100785.75;;;36.62;21.68
59493;BME280;45497;43.996;22.876;2022-07-01T12:44:54;100783.91;;;36.66;21.60
59493;BME280;45497;43.996;22.876;2022-07-01T12:47:24;100785.88;;;36.53;22.44
59493;BME280;45497;43.996;22.876;2022-07-01T12:50:11;100784.13;;;36.61;23.23
59493;BME280;45497;43.996;22.876;2022-07-01T12:52:39;100780.34;;;36.65;23.47